createdAt,value
2022-08-08T00:02:36.115Z,12.20
2022-08-08T00:08:20.943Z,12.10
2022-08-08T00:14:16.327Z,12.30
2022-08-08T00:19:16.308Z,12.40
2022-08-08T00:24:34.457Z,12.50
2022-08-08T00:29:55.090Z,12.50
2022-08-08T00:35:22.621Z,12.60
2022-08-08T00:41:09.169Z,12.70
2022-08-08T00:45:59.875Z,12.80
2022-08-08T00:51:33.603Z,12.90
2022-08-08T00:57:12.810Z,12.70
2022-08-08T01:03:58.583Z,12.70
2022-08-08T01:08:08.273Z,12.60
2022-08-08T01:13:53.028Z,12.70
2022-08-08T01:19:42.290Z,12.60
2022-08-08T01:25:40.588Z,12.70
2022-08-08T01:32:02.946Z,12.80
2022-08-08T01:36:56.203Z,12.80
2022-08-08T01:42:19.542Z,12.90
2022-08-08T01:48:15.736Z,13.00
2022-08-08T01:55:17.290Z,13.10
2022-08-08T02:00:02.041Z,13.10
2022-08-08T02:05:56.485Z,13.20
2022-08-08T02:11:52.749Z,13.30
2022-08-08T02:16:59.547Z,13.10
2022-08-08T02:22:45.836Z,13.10
2022-08-08T02:28:01.370Z,13.20
2022-08-08T02:33:41.542Z,13.20
2022-08-08T02:39:41.929Z,13.30
2022-08-08T02:44:57.046Z,13.30
2022-08-08T02:50:34.028Z,13.40
2022-08-08T02:55:48.777Z,13.50
2022-08-08T03:01:15.054Z,13.50
2022-08-08T03:06:34.764Z,13.50
2022-08-08T03:12:05.991Z,13.50
2022-08-08T03:17:25.666Z,13.60
2022-08-08T03:22:57.058Z,13.70
2022-08-08T03:28:21.908Z,13.70
2022-08-08T03:33:57.327Z,13.80
2022-08-08T03:38:58.562Z,13.80
2022-08-08T03:44:09.562Z,13.90
2022-08-08T03:49:57.431Z,13.80
2022-08-08T03:55:01.636Z,13.70
2022-08-08T04:00:18.199Z,13.90
2022-08-08T04:05:30.484Z,13.90
2022-08-08T04:10:39.476Z,13.80
2022-08-08T04:15:55.127Z,13.80
2022-08-08T04:21:09.458Z,13.80
2022-08-08T04:26:14.860Z,13.90
2022-08-08T04:31:57.382Z,14.00
2022-08-08T04:36:41.128Z,14.00
2022-08-08T04:41:43.899Z,13.90
2022-08-08T04:46:48.918Z,13.90
2022-08-08T04:51:57.847Z,14.00
2022-08-08T04:57:02.253Z,13.90
2022-08-08T05:02:05.423Z,14.00
2022-08-08T05:07:10.850Z,14.00
2022-08-08T05:12:20.914Z,14.10
2022-08-08T05:17:26.169Z,14.10
2022-08-08T05:22:29.778Z,14.20
2022-08-08T05:27:41.751Z,14.20
2022-08-08T05:32:50.069Z,14.30
2022-08-08T05:38:04.825Z,14.40
2022-08-08T05:44:02.097Z,14.30
2022-08-08T05:48:55.979Z,14.30
2022-08-08T05:54:26.786Z,14.20
2022-08-08T06:00:01.442Z,14.20
2022-08-08T06:05:06.791Z,14.30
2022-08-08T06:10:32.210Z,14.40
2022-08-08T06:15:51.424Z,14.50
2022-08-08T06:21:28.397Z,14.50
2022-08-08T06:26:50.472Z,14.50
2022-08-08T06:32:10.460Z,14.60
2022-08-08T06:37:24.778Z,14.90
2022-08-08T06:42:38.949Z,15.10
2022-08-08T06:47:52.151Z,15.40
2022-08-08T06:53:14.319Z,15.30
2022-08-08T06:58:30.231Z,15.50
2022-08-08T07:04:36.370Z,15.60
2022-08-08T07:09:21.276Z,15.80
2022-08-08T07:14:34.121Z,15.80
2022-08-08T07:19:49.670Z,16.00
2022-08-08T07:25:00.160Z,16.40
2022-08-08T07:30:08.294Z,16.50
2022-08-08T07:35:17.890Z,16.50
2022-08-08T07:40:30.113Z,17.30
2022-08-08T07:46:04.815Z,17.70
2022-08-08T07:51:04.408Z,18.50
2022-08-08T07:56:36.311Z,18.50
2022-08-08T08:02:34.327Z,19.20
2022-08-08T08:07:22.669Z,19.50
2022-08-08T08:12:43.039Z,19.80
2022-08-08T08:17:55.846Z,19.90
2022-08-08T08:23:00.459Z,20.20
2022-08-08T08:28:04.209Z,21.00
2022-08-08T08:33:13.649Z,21.80
2022-08-08T08:38:18.773Z,22.00
2022-08-08T08:43:32.779Z,22.40
2022-08-08T08:48:38.207Z,21.70
2022-08-08T08:54:01.052Z,21.10
2022-08-08T08:59:15.263Z,21.50
2022-08-08T09:04:31.657Z,22.80
2022-08-08T09:09:57.619Z,23.90
2022-08-08T09:15:12.246Z,22.50
2022-08-08T09:22:01.318Z,22.30
2022-08-08T09:25:57.750Z,23.10
2022-08-08T09:31:42.570Z,23.00
2022-08-08T09:37:10.277Z,24.00
2022-08-08T09:42:22.259Z,24.50
2022-08-08T09:48:09.768Z,24.30
2022-08-08T09:53:05.777Z,24.30
2022-08-08T09:58:27.994Z,24.10
2022-08-08T10:03:56.132Z,25.00
2022-08-08T10:09:00.307Z,25.40
2022-08-08T10:14:27.658Z,25.60
2022-08-08T10:19:57.388Z,26.30
2022-08-08T10:25:15.526Z,26.20
2022-08-08T10:30:57.304Z,26.80
2022-08-08T10:36:09.213Z,25.60
2022-08-08T10:41:25.959Z,26.00
2022-08-08T10:46:39.279Z,26.80
2022-08-08T10:51:50.841Z,27.10
2022-08-08T10:57:03.875Z,26.90
2022-08-08T11:02:07.804Z,26.60
2022-08-08T11:07:38.971Z,27.00
2022-08-08T11:12:38.338Z,26.90
2022-08-08T11:17:59.791Z,27.00
2022-08-08T11:23:06.091Z,27.00
2022-08-08T11:28:11.453Z,26.10
2022-08-08T11:33:15.255Z,26.70
2022-08-08T11:38:39.619Z,26.00
2022-08-08T11:43:42.865Z,26.70
2022-08-08T11:48:47.619Z,26.20
2022-08-08T11:53:59.062Z,26.00
2022-08-08T11:59:10.002Z,25.70
2022-08-08T12:04:12.980Z,25.10
2022-08-08T12:09:17.322Z,25.90
2022-08-08T12:14:29.201Z,25.50
2022-08-08T12:19:51.353Z,24.80
2022-08-08T12:24:56.280Z,24.30
2022-08-08T12:30:01.885Z,24.10
2022-08-08T12:35:18.218Z,24.40
2022-08-08T12:40:22.534Z,25.00
2022-08-08T12:46:00.014Z,24.70
2022-08-08T12:50:58.715Z,25.30
2022-08-08T12:56:17.999Z,25.10
2022-08-08T13:01:37.830Z,24.80
2022-08-08T13:06:52.022Z,24.90
2022-08-08T13:12:26.893Z,25.00
2022-08-08T13:18:10.059Z,24.90
2022-08-08T13:22:59.307Z,24.10
2022-08-08T13:28:13.278Z,24.40
2022-08-08T13:33:20.367Z,24.70
2022-08-08T13:38:24.244Z,25.10
2022-08-08T13:43:31.585Z,26.50
2022-08-08T13:48:44.184Z,27.40
2022-08-08T13:54:00.609Z,27.00
2022-08-08T13:59:07.160Z,27.40
2022-08-08T14:04:21.951Z,27.70
2022-08-08T14:10:04.808Z,27.40
2022-08-08T14:14:54.542Z,27.10
2022-08-08T14:20:14.877Z,26.70
2022-08-08T14:25:54.142Z,26.40
2022-08-08T14:31:09.780Z,27.40
2022-08-08T14:36:14.170Z,26.00
2022-08-08T14:41:53.787Z,25.90
2022-08-08T14:46:43.787Z,26.10
2022-08-08T14:51:52.321Z,25.90
2022-08-08T14:56:58.097Z,25.10
2022-08-08T15:02:01.649Z,24.80
2022-08-08T15:07:04.523Z,24.50
2022-08-08T15:12:07.723Z,24.10
2022-08-08T15:17:11.742Z,24.20
2022-08-08T15:22:18.100Z,24.00
2022-08-08T15:28:04.585Z,23.90
2022-08-08T15:32:49.723Z,24.00
2022-08-08T15:37:52.595Z,23.50
2022-08-08T15:42:56.433Z,23.60
2022-08-08T15:48:15.148Z,23.60
2022-08-08T15:53:19.734Z,23.50
2022-08-08T15:58:28.294Z,23.30
2022-08-08T16:03:34.723Z,23.40
2022-08-08T16:08:38.352Z,23.00
2022-08-08T16:14:01.139Z,22.90
2022-08-08T16:19:04.206Z,22.80
2022-08-08T16:24:10.295Z,22.80
2022-08-08T16:29:16.400Z,22.60
2022-08-08T16:34:21.589Z,22.50
2022-08-08T16:40:01.428Z,22.30
2022-08-08T16:44:54.399Z,22.20
2022-08-08T16:49:59.145Z,22.20
2022-08-08T16:55:34.003Z,22.10
2022-08-08T17:00:27.741Z,22.10
2022-08-08T17:05:44.683Z,22.00
2022-08-08T17:10:58.088Z,21.90
2022-08-08T17:16:02.349Z,21.90
2022-08-08T17:21:09.696Z,21.80
2022-08-08T17:26:12.979Z,21.70
2022-08-08T17:31:44.743Z,21.60
2022-08-08T17:36:58.014Z,21.40
2022-08-08T17:42:05.246Z,21.20
2022-08-08T17:47:09.618Z,20.90
2022-08-08T17:52:12.665Z,20.80
2022-08-08T17:57:15.724Z,20.40
2022-08-08T18:02:28.569Z,20.00
2022-08-08T18:08:01.727Z,19.80
2022-08-08T18:12:55.916Z,19.60
2022-08-08T18:18:09.724Z,19.20
2022-08-08T18:23:23.546Z,18.90
2022-08-08T18:28:27.160Z,18.50
2022-08-08T18:34:11.177Z,18.30
2022-08-08T18:38:53.079Z,18.10
2022-08-08T18:43:56.161Z,17.70
2022-08-08T18:48:59.164Z,17.60
2022-08-08T18:54:13.706Z,17.30
2022-08-08T18:59:34.378Z,17.20
2022-08-08T19:04:38.006Z,17.20
2022-08-08T19:09:49.299Z,17.20
2022-08-08T19:15:04.705Z,17.20
2022-08-08T19:20:08.956Z,17.40
2022-08-08T19:26:01.891Z,17.40
2022-08-08T19:30:38.848Z,17.30
2022-08-08T19:36:08.693Z,17.30
2022-08-08T19:41:12.868Z,17.30
2022-08-08T19:46:24.403Z,17.10
2022-08-08T19:51:43.190Z,17.00
2022-08-08T19:56:48.824Z,17.00
2022-08-08T20:02:02.977Z,16.90
2022-08-08T20:08:28.650Z,16.90
2022-08-08T20:12:35.196Z,16.90
2022-08-08T20:17:40.213Z,17.00
2022-08-08T20:22:44.964Z,17.00
2022-08-08T20:27:50.289Z,17.10
2022-08-08T20:32:57.007Z,17.20
2022-08-08T20:38:00.526Z,17.30
2022-08-08T20:43:13.250Z,17.20
2022-08-08T20:48:28.310Z,17.20
2022-08-08T20:54:00.040Z,17.00
2022-08-08T20:58:54.725Z,17.10
2022-08-08T21:04:01.406Z,17.10
2022-08-08T21:09:04.926Z,17.10
2022-08-08T21:14:07.836Z,17.20
2022-08-08T21:19:11.008Z,16.90
2022-08-08T21:24:25.514Z,16.80
2022-08-08T21:30:04.506Z,16.60
2022-08-08T21:34:56.575Z,16.40
2022-08-08T21:40:00.205Z,16.10
2022-08-08T21:45:44.905Z,16.20
2022-08-08T21:50:31.424Z,15.90
2022-08-08T21:56:19.775Z,15.90
2022-08-08T22:00:58.672Z,15.80
2022-08-08T22:06:07.461Z,15.60
2022-08-08T22:11:51.289Z,15.50
2022-08-08T22:16:38.331Z,15.50
2022-08-08T22:21:41.220Z,15.50
2022-08-08T22:27:02.375Z,15.50
2022-08-08T22:32:06.670Z,15.60
2022-08-08T22:37:14.865Z,15.60
2022-08-08T22:42:31.826Z,15.60
2022-08-08T22:47:38.588Z,15.70
2022-08-08T22:53:00.001Z,15.60
2022-08-08T22:58:07.039Z,15.70
2022-08-08T23:03:10.067Z,15.80
2022-08-08T23:08:19.823Z,15.90
2022-08-08T23:13:23.040Z,15.90
2022-08-08T23:18:29.996Z,15.90
2022-08-08T23:23:33.199Z,15.70
2022-08-08T23:28:51.720Z,15.60
2022-08-08T23:34:16.963Z,15.60
2022-08-08T23:39:17.090Z,15.60
2022-08-08T23:44:20.714Z,15.60
2022-08-08T23:49:27.210Z,15.50
2022-08-08T23:54:43.171Z,15.30
